createdAt,value
2022-07-27T00:00:52.026Z,38.90
2022-07-27T00:03:18.825Z,38.80
2022-07-27T00:05:45.794Z,38.70
2022-07-27T00:08:12.564Z,39.10
2022-07-27T00:10:40.658Z,38.70
2022-07-27T00:13:07.713Z,38.70
2022-07-27T00:15:34.858Z,38.80
2022-07-27T00:18:01.725Z,38.70
2022-07-27T00:20:28.591Z,38.60
2022-07-27T00:22:55.446Z,39.10
2022-07-27T00:25:22.958Z,38.70
2022-07-27T00:27:51.091Z,38.90
2022-07-27T00:30:17.938Z,38.90
2022-07-27T00:32:44.644Z,39.50
2022-07-27T00:35:11.867Z,39.60
2022-07-27T00:37:38.801Z,39.80
2022-07-27T00:40:06.646Z,40.30
2022-07-27T00:42:33.561Z,40.30
2022-07-27T00:45:03.866Z,40.90
2022-07-27T00:47:30.943Z,40.70
2022-07-27T00:49:58.399Z,41.00
2022-07-27T00:52:25.843Z,41.30
2022-07-27T00:54:53.035Z,41.60
2022-07-27T00:57:20.211Z,41.10
2022-07-27T00:59:46.904Z,41.00
2022-07-27T01:02:15.134Z,41.70
2022-07-27T01:04:46.685Z,41.40
2022-07-27T01:07:14.240Z,41.20
2022-07-27T01:09:40.940Z,41.30
2022-07-27T01:12:11.679Z,41.10
2022-07-27T01:14:39.229Z,41.30
2022-07-27T01:17:06.486Z,41.30
2022-07-27T01:19:34.773Z,41.00
2022-07-27T01:22:02.839Z,40.50
2022-07-27T01:24:29.657Z,40.30
2022-07-27T01:26:56.350Z,40.70
2022-07-27T01:29:23.028Z,40.80
2022-07-27T01:31:49.735Z,40.90
2022-07-27T01:34:16.467Z,41.20
2022-07-27T01:36:43.169Z,41.10
2022-07-27T01:39:11.589Z,41.10
2022-07-27T01:41:38.518Z,40.90
2022-07-27T01:44:05.539Z,40.90
2022-07-27T01:46:32.312Z,40.80
2022-07-27T01:48:59.073Z,41.10
2022-07-27T01:51:25.855Z,41.30
2022-07-27T01:53:52.561Z,41.30
2022-07-27T01:56:20.590Z,40.80
2022-07-27T01:58:47.482Z,40.50
2022-07-27T02:01:14.214Z,40.60
2022-07-27T02:03:40.957Z,40.50
2022-07-27T02:06:08.907Z,40.50
2022-07-27T02:08:36.242Z,40.70
2022-07-27T02:11:03.123Z,40.40
2022-07-27T02:13:31.165Z,40.30
2022-07-27T02:15:58.841Z,40.30
2022-07-27T02:18:36.002Z,40.60
2022-07-27T02:21:04.784Z,40.70
2022-07-27T02:23:31.707Z,40.80
2022-07-27T02:25:58.634Z,40.90
2022-07-27T02:28:25.328Z,40.80
2022-07-27T02:30:53.307Z,40.90
2022-07-27T02:33:20.083Z,41.00
2022-07-27T02:35:46.814Z,40.90
2022-07-27T02:38:13.469Z,40.80
2022-07-27T02:40:40.137Z,41.40
2022-07-27T02:43:06.805Z,41.50
2022-07-27T02:45:33.501Z,41.40
2022-07-27T02:48:01.986Z,40.70
2022-07-27T02:50:28.772Z,40.80
2022-07-27T02:52:55.534Z,40.90
2022-07-27T02:55:22.243Z,41.50
2022-07-27T02:57:48.914Z,41.80
2022-07-27T03:00:16.437Z,41.60
2022-07-27T03:02:43.247Z,42.00
2022-07-27T03:05:11.423Z,42.90
2022-07-27T03:07:38.189Z,42.50
2022-07-27T03:10:06.118Z,43.00
2022-07-27T03:12:32.807Z,43.00
2022-07-27T03:14:59.546Z,43.30
2022-07-27T03:17:26.230Z,43.50
2022-07-27T03:19:52.939Z,43.00
2022-07-27T03:22:20.942Z,43.00
2022-07-27T03:24:47.721Z,43.70
2022-07-27T03:27:14.411Z,43.50
2022-07-27T03:29:41.111Z,43.90
2022-07-27T03:32:07.989Z,44.00
2022-07-27T03:34:34.704Z,44.00
2022-07-27T03:37:01.427Z,44.00
2022-07-27T03:39:29.508Z,43.70
2022-07-27T03:41:56.201Z,43.80
2022-07-27T03:44:22.896Z,43.60
2022-07-27T03:46:49.589Z,43.70
2022-07-27T03:49:16.451Z,43.00
2022-07-27T03:51:43.293Z,43.10
2022-07-27T03:54:10.137Z,42.90
2022-07-27T03:56:38.142Z,43.00
2022-07-27T03:59:04.841Z,43.30
2022-07-27T04:01:31.667Z,42.90
2022-07-27T04:03:58.441Z,43.00
2022-07-27T04:06:25.133Z,43.70
2022-07-27T04:08:54.998Z,42.70
2022-07-27T04:11:26.269Z,42.70
2022-07-27T04:13:57.742Z,43.00
2022-07-27T04:16:24.496Z,42.80
2022-07-27T04:18:51.234Z,42.20
2022-07-27T04:21:17.879Z,42.50
2022-07-27T04:23:44.668Z,42.40
2022-07-27T04:26:11.338Z,42.70
2022-07-27T04:28:38.394Z,42.40
2022-07-27T04:31:06.447Z,42.60
2022-07-27T04:33:33.275Z,42.40
2022-07-27T04:35:59.928Z,42.60
2022-07-27T04:38:26.629Z,42.40
2022-07-27T04:40:58.129Z,41.70
2022-07-27T04:43:25.117Z,42.50
2022-07-27T04:45:55.040Z,42.40
2022-07-27T04:48:23.319Z,42.10
2022-07-27T04:50:50.110Z,42.00
2022-07-27T04:53:16.832Z,43.00
2022-07-27T04:55:44.922Z,42.70
2022-07-27T04:58:12.060Z,43.60
2022-07-27T05:00:38.787Z,42.90
2022-07-27T05:03:05.508Z,43.00
2022-07-27T05:05:33.584Z,44.00
2022-07-27T05:08:00.266Z,43.10
2022-07-27T05:10:27.001Z,43.10
2022-07-27T05:12:54.340Z,44.00
2022-07-27T05:15:21.194Z,43.90
2022-07-27T05:17:47.899Z,43.90
2022-07-27T05:20:15.261Z,43.80
2022-07-27T05:22:43.361Z,44.40
2022-07-27T05:25:10.359Z,44.00
2022-07-27T05:27:37.034Z,43.50
2022-07-27T05:30:04.679Z,44.60
2022-07-27T05:32:31.414Z,46.30
2022-07-27T05:34:58.100Z,45.70
2022-07-27T05:37:24.820Z,46.50
2022-07-27T05:39:52.896Z,45.80
2022-07-27T05:42:19.597Z,46.80
2022-07-27T05:44:46.302Z,46.20
2022-07-27T05:47:12.999Z,46.40
2022-07-27T05:49:39.733Z,45.70
2022-07-27T05:52:06.561Z,44.80
2022-07-27T05:54:33.268Z,45.10
2022-07-27T05:57:01.338Z,44.80
2022-07-27T05:59:28.072Z,44.80
2022-07-27T06:01:54.748Z,44.50
2022-07-27T06:04:22.822Z,44.50
2022-07-27T06:06:54.017Z,44.50
2022-07-27T06:09:20.721Z,45.10
2022-07-27T06:11:47.443Z,44.90
2022-07-27T06:14:15.462Z,44.50
2022-07-27T06:16:42.232Z,44.60
2022-07-27T06:19:09.173Z,45.00
2022-07-27T06:21:36.097Z,45.60
2022-07-27T06:24:02.868Z,44.80
2022-07-27T06:26:29.663Z,45.10
2022-07-27T06:28:56.383Z,45.00
2022-07-27T06:31:25.124Z,44.80
2022-07-27T06:33:54.021Z,44.30
2022-07-27T06:36:23.332Z,44.30
2022-07-27T06:38:50.648Z,43.40
2022-07-27T06:41:17.403Z,43.20
2022-07-27T06:43:44.175Z,43.30
2022-07-27T06:46:10.854Z,43.10
2022-07-27T06:48:39.209Z,42.90
2022-07-27T06:51:05.999Z,42.30
2022-07-27T06:53:36.993Z,42.20
2022-07-27T06:56:04.894Z,42.20
2022-07-27T06:58:32.208Z,41.30
2022-07-27T07:00:59.027Z,41.40
2022-07-27T07:03:25.792Z,41.50
2022-07-27T07:05:53.868Z,40.80
2022-07-27T07:08:20.532Z,41.80
2022-07-27T07:10:47.246Z,41.20
2022-07-27T07:13:13.986Z,40.50
2022-07-27T07:15:42.225Z,40.10
2022-07-27T07:18:09.710Z,40.40
2022-07-27T07:20:37.159Z,40.40
2022-07-27T07:23:05.904Z,40.40
2022-07-27T07:25:33.243Z,40.70
2022-07-27T07:28:00.482Z,39.60
2022-07-27T07:30:27.945Z,38.90
2022-07-27T07:32:54.882Z,38.20
2022-07-27T07:35:21.584Z,39.70
2022-07-27T07:37:50.598Z,37.70
2022-07-27T07:43:07.121Z,37.70
2022-07-27T07:45:36.868Z,37.60
2022-07-27T07:48:04.592Z,37.60
2022-07-27T07:50:32.261Z,38.80
2022-07-27T07:52:59.213Z,38.00
2022-07-27T07:55:28.618Z,37.50
2022-07-27T07:57:56.882Z,37.70
2022-07-27T08:00:24.791Z,37.80
2022-07-27T08:02:53.543Z,37.80
2022-07-27T08:05:21.434Z,37.00
2022-07-27T08:07:49.358Z,36.60
2022-07-27T08:10:18.051Z,37.60
2022-07-27T08:12:48.477Z,37.50
2022-07-27T08:15:16.971Z,37.20
2022-07-27T08:17:44.449Z,37.30
2022-07-27T08:20:12.371Z,36.50
2022-07-27T08:22:39.095Z,36.50
2022-07-27T08:25:07.189Z,36.90
2022-07-27T08:27:40.494Z,36.20
2022-07-27T08:30:11.667Z,36.00
2022-07-27T08:32:53.433Z,36.30
2022-07-27T08:35:20.906Z,36.10
2022-07-27T08:37:47.833Z,35.60
2022-07-27T08:43:02.844Z,34.70
2022-07-27T08:45:33.647Z,34.60
2022-07-27T08:48:00.480Z,34.30
2022-07-27T08:50:27.448Z,34.90
2022-07-27T08:52:57.169Z,34.30
2022-07-27T08:55:24.505Z,35.00
2022-07-27T08:57:52.322Z,34.50
2022-07-27T09:00:19.836Z,34.20
2022-07-27T09:02:48.268Z,33.30
2022-07-27T09:05:15.460Z,33.80
2022-07-27T09:07:42.542Z,33.30
2022-07-27T09:10:09.955Z,33.40
2022-07-27T09:12:37.188Z,34.10
2022-07-27T09:15:09.931Z,35.00
2022-07-27T09:17:48.525Z,33.10
2022-07-27T09:20:19.884Z,31.90
2022-07-27T09:22:48.247Z,33.00
2022-07-27T09:25:17.096Z,33.60
2022-07-27T09:27:44.711Z,33.00
2022-07-27T09:30:15.099Z,34.60
2022-07-27T09:32:53.558Z,32.30
2022-07-27T09:35:24.847Z,32.10
2022-07-27T09:37:51.953Z,32.90
2022-07-27T09:40:22.619Z,33.10
2022-07-27T09:43:31.710Z,32.70
2022-07-27T09:45:55.213Z,31.90
2022-07-27T09:48:23.168Z,31.20
2022-07-27T09:51:32.872Z,31.50
2022-07-27T09:53:49.933Z,32.40
2022-07-27T09:56:16.757Z,31.90
2022-07-27T09:58:48.158Z,32.50
2022-07-27T10:01:17.163Z,32.40
2022-07-27T10:03:45.710Z,31.40
2022-07-27T10:06:14.008Z,31.90
2022-07-27T10:08:46.665Z,32.40
2022-07-27T10:11:14.809Z,31.60
2022-07-27T10:13:43.767Z,31.70
2022-07-27T10:16:13.972Z,31.90
2022-07-27T10:18:55.573Z,31.10
2022-07-27T10:21:24.922Z,31.50
2022-07-27T10:23:56.194Z,30.70
2022-07-27T10:26:29.777Z,30.50
2022-07-27T10:28:58.786Z,31.20
2022-07-27T10:31:27.447Z,31.10
2022-07-27T10:33:55.786Z,32.50
2022-07-27T10:36:51.907Z,31.20
2022-07-27T10:39:28.341Z,31.30
2022-07-27T10:42:18.219Z,31.00
2022-07-27T10:44:56.202Z,29.80
2022-07-27T10:47:31.988Z,29.90
2022-07-27T10:50:25.951Z,31.30
2022-07-27T10:52:56.187Z,30.70
2022-07-27T10:55:47.972Z,29.50
2022-07-27T10:58:48.666Z,30.20
2022-07-27T11:01:17.460Z,29.90
2022-07-27T11:03:44.997Z,31.10
2022-07-27T11:06:32.596Z,30.10
2022-07-27T11:09:53.111Z,30.50
2022-07-27T11:11:51.967Z,31.70
2022-07-27T11:14:19.395Z,32.80
2022-07-27T11:17:17.199Z,31.40
2022-07-27T11:19:45.268Z,30.00
2022-07-27T11:22:28.277Z,30.40
2022-07-27T11:24:57.129Z,30.30
2022-07-27T11:27:25.504Z,29.50
2022-07-27T11:29:52.339Z,30.40
2022-07-27T11:32:21.151Z,28.50
2022-07-27T11:34:48.881Z,28.70
2022-07-27T11:37:17.062Z,29.10
2022-07-27T11:39:59.860Z,30.20
2022-07-27T11:42:39.107Z,29.30
2022-07-27T11:45:07.376Z,28.70
2022-07-27T11:47:34.169Z,29.90
2022-07-27T11:50:05.501Z,29.80
2022-07-27T11:52:32.346Z,28.80
2022-07-27T11:54:59.032Z,28.50
2022-07-27T11:57:31.699Z,28.30
2022-07-27T11:59:59.967Z,28.40
2022-07-27T12:02:26.719Z,29.00
2022-07-27T12:04:55.001Z,28.50
2022-07-27T12:07:29.905Z,28.90
2022-07-27T12:09:59.159Z,28.50
2022-07-27T12:12:27.009Z,28.60
2022-07-27T12:14:55.033Z,28.80
2022-07-27T12:17:28.849Z,28.80
2022-07-27T12:20:01.620Z,28.70
2022-07-27T12:22:34.351Z,27.80
2022-07-27T12:25:04.114Z,27.50
2022-07-27T12:27:37.378Z,28.80
2022-07-27T12:30:07.997Z,29.20
2022-07-27T12:32:37.277Z,29.20
2022-07-27T12:35:17.732Z,29.20
2022-07-27T12:37:45.318Z,28.40
2022-07-27T12:40:16.239Z,28.70
2022-07-27T12:42:43.160Z,28.80
2022-07-27T12:45:19.499Z,29.00
2022-07-27T12:47:47.597Z,27.70
2022-07-27T12:50:15.934Z,27.50
2022-07-27T12:52:46.419Z,27.60
2022-07-27T12:55:16.111Z,27.50
2022-07-27T12:57:55.120Z,28.80
2022-07-27T13:00:29.178Z,28.40
2022-07-27T13:03:02.171Z,27.40
2022-07-27T13:05:29.148Z,28.10
2022-07-27T13:07:55.920Z,27.50
2022-07-27T13:10:22.703Z,28.10
2022-07-27T13:12:49.762Z,27.60
2022-07-27T13:15:17.343Z,28.40
2022-07-27T13:17:45.318Z,27.50
2022-07-27T13:20:15.162Z,28.00
2022-07-27T13:22:42.483Z,27.80
2022-07-27T13:25:16.584Z,27.20
2022-07-27T13:27:44.505Z,27.10
2022-07-27T13:30:13.108Z,27.10
2022-07-27T13:32:40.631Z,28.30
2022-07-27T13:35:09.477Z,25.40
2022-07-27T13:37:37.577Z,26.10
2022-07-27T13:40:05.363Z,26.50
2022-07-27T13:42:32.086Z,27.20
2022-07-27T13:45:07.978Z,26.80
2022-07-27T13:47:36.878Z,26.50
2022-07-27T13:50:04.267Z,27.30
2022-07-27T13:52:30.991Z,27.30
2022-07-27T13:54:59.006Z,27.00
2022-07-27T13:57:25.894Z,26.70
2022-07-27T13:59:52.735Z,27.80
2022-07-27T14:02:23.380Z,26.00
2022-07-27T14:04:52.669Z,26.80
2022-07-27T14:07:20.701Z,26.10
2022-07-27T14:09:49.092Z,26.40
2022-07-27T14:12:17.214Z,26.40
2022-07-27T14:14:43.934Z,25.40
2022-07-27T14:17:10.829Z,25.50
2022-07-27T14:19:37.559Z,25.40
2022-07-27T14:22:04.400Z,25.50
2022-07-27T14:24:34.843Z,25.90
2022-07-27T14:27:05.017Z,26.50
2022-07-27T14:29:33.283Z,26.90
2022-07-27T14:32:00.266Z,25.60
2022-07-27T14:34:27.019Z,25.50
2022-07-27T14:36:53.785Z,24.40
2022-07-27T14:39:20.493Z,24.70
2022-07-27T14:41:47.206Z,25.00
2022-07-27T14:44:13.880Z,25.50
2022-07-27T14:46:41.922Z,26.10
2022-07-27T14:49:08.721Z,26.40
2022-07-27T14:51:36.108Z,26.30
2022-07-27T14:54:03.854Z,26.10
2022-07-27T14:56:30.528Z,26.10
2022-07-27T14:58:57.276Z,25.20
2022-07-27T15:01:24.073Z,26.20
2022-07-27T15:03:52.367Z,25.70
2022-07-27T15:06:19.042Z,25.80
2022-07-27T15:08:45.790Z,26.20
2022-07-27T15:11:12.535Z,26.60
2022-07-27T15:13:39.644Z,25.30
2022-07-27T15:16:06.645Z,26.50
2022-07-27T15:18:38.300Z,26.00
2022-07-27T15:21:13.460Z,27.10
2022-07-27T15:23:41.690Z,28.00
2022-07-27T15:26:08.409Z,27.20
2022-07-27T15:28:35.134Z,26.70
2022-07-27T15:31:01.884Z,26.60
2022-07-27T15:33:28.624Z,27.50
2022-07-27T15:35:55.850Z,25.40
2022-07-27T15:38:24.085Z,25.80
2022-07-27T15:40:50.843Z,25.80
2022-07-27T15:43:18.146Z,25.70
2022-07-27T15:45:47.539Z,26.10
2022-07-27T15:48:15.577Z,24.10
2022-07-27T15:50:45.004Z,25.40
2022-07-27T15:53:12.210Z,25.50
2022-07-27T15:55:41.689Z,24.50
2022-07-27T15:58:09.080Z,25.20
2022-07-27T16:00:40.938Z,25.10
2022-07-27T16:03:09.378Z,24.90
2022-07-27T16:05:36.351Z,24.80
2022-07-27T16:08:03.253Z,23.90
2022-07-27T16:10:30.034Z,25.20
2022-07-27T16:12:58.102Z,25.10
2022-07-27T16:15:24.789Z,26.30
2022-07-27T16:17:51.590Z,25.80
2022-07-27T16:20:18.327Z,25.90
2022-07-27T16:22:45.008Z,25.60
2022-07-27T16:25:11.689Z,25.60
2022-07-27T16:27:38.430Z,26.10
2022-07-27T16:30:07.436Z,25.30
2022-07-27T16:32:34.153Z,26.50
2022-07-27T16:35:00.850Z,26.00
2022-07-27T16:37:27.598Z,25.70
2022-07-27T16:39:54.287Z,24.70
2022-07-27T16:42:20.950Z,24.90
2022-07-27T16:44:47.625Z,24.70
2022-07-27T16:47:15.609Z,24.70
2022-07-27T16:49:42.347Z,24.40
2022-07-27T16:52:09.109Z,25.20
2022-07-27T16:54:39.496Z,25.10
2022-07-27T16:57:06.911Z,25.00
2022-07-27T16:59:33.664Z,24.50
2022-07-27T17:02:00.388Z,25.30
2022-07-27T17:04:28.516Z,25.20
2022-07-27T17:06:55.210Z,25.70
2022-07-27T17:09:21.915Z,25.60
2022-07-27T17:11:48.854Z,25.30
2022-07-27T17:14:16.462Z,25.50
2022-07-27T17:16:43.356Z,25.70
2022-07-27T17:19:17.260Z,25.90
2022-07-27T17:21:45.518Z,26.60
2022-07-27T17:24:12.250Z,26.90
2022-07-27T17:26:38.970Z,26.70
2022-07-27T17:29:05.746Z,27.20
2022-07-27T17:31:32.515Z,26.60
2022-07-27T17:33:59.216Z,26.80
2022-07-27T17:36:25.902Z,26.90
2022-07-27T17:38:53.975Z,27.30
2022-07-27T17:41:24.430Z,27.50
2022-07-27T17:43:52.601Z,26.50
2022-07-27T17:46:19.500Z,26.80
2022-07-27T17:48:46.410Z,27.00
2022-07-27T17:51:13.305Z,26.70
2022-07-27T17:53:40.054Z,26.20
2022-07-27T17:56:08.435Z,27.00
2022-07-27T17:58:35.437Z,26.10
2022-07-27T18:01:02.132Z,25.90
2022-07-27T18:03:28.912Z,26.00
2022-07-27T18:05:55.831Z,26.00
2022-07-27T18:08:22.679Z,26.30
2022-07-27T18:10:49.351Z,26.20
2022-07-27T18:13:17.707Z,26.30
2022-07-27T18:15:44.668Z,26.70
2022-07-27T18:18:11.362Z,26.70
2022-07-27T18:20:38.046Z,27.20
2022-07-27T18:23:06.561Z,27.10
2022-07-27T18:25:33.270Z,27.30
2022-07-27T18:28:00.023Z,27.30
2022-07-27T18:30:28.180Z,27.70
2022-07-27T18:32:54.947Z,27.40
2022-07-27T18:35:21.732Z,27.40
2022-07-27T18:37:48.436Z,27.80
2022-07-27T18:40:15.161Z,27.80
2022-07-27T18:42:41.886Z,28.10
2022-07-27T18:45:09.935Z,28.10
2022-07-27T18:47:38.132Z,27.90
2022-07-27T18:50:06.634Z,28.10
2022-07-27T18:52:33.469Z,28.50
2022-07-27T18:55:00.262Z,28.10
2022-07-27T18:57:26.967Z,28.40
2022-07-27T18:59:53.703Z,28.10
2022-07-27T19:02:20.971Z,28.40
2022-07-27T19:04:49.281Z,28.20
2022-07-27T19:07:16.083Z,28.40
2022-07-27T19:09:42.814Z,28.40
2022-07-27T19:12:10.055Z,28.60
2022-07-27T19:14:37.535Z,28.70
2022-07-27T19:17:04.493Z,28.70
2022-07-27T19:19:31.460Z,28.90
2022-07-27T19:21:59.999Z,29.10
2022-07-27T19:24:26.698Z,29.10
2022-07-27T19:26:53.453Z,29.40
2022-07-27T19:29:20.114Z,29.40
2022-07-27T19:31:47.090Z,29.60
2022-07-27T19:34:13.966Z,30.20
2022-07-27T19:36:40.667Z,29.90
2022-07-27T19:39:08.737Z,30.00
2022-07-27T19:41:35.531Z,30.10
2022-07-27T19:44:02.430Z,30.10
2022-07-27T19:46:29.309Z,30.30
2022-07-27T19:48:56.082Z,30.40
2022-07-27T19:51:23.169Z,30.40
2022-07-27T19:53:49.965Z,30.50
2022-07-27T19:56:18.032Z,30.70
2022-07-27T19:58:44.889Z,30.80
2022-07-27T20:01:12.591Z,31.60
2022-07-27T20:03:53.967Z,30.90
2022-07-27T20:06:22.087Z,30.90
2022-07-27T20:08:48.791Z,31.00
2022-07-27T20:11:15.530Z,31.80
2022-07-27T20:13:43.567Z,31.20
2022-07-27T20:16:10.282Z,31.20
2022-07-27T20:18:37.137Z,31.40
2022-07-27T20:21:04.087Z,31.50
2022-07-27T20:23:49.741Z,31.60
2022-07-27T20:26:16.433Z,31.70
2022-07-27T20:28:44.440Z,31.70
2022-07-27T20:31:11.207Z,31.90
2022-07-27T20:33:37.919Z,32.10
2022-07-27T20:36:04.973Z,32.00
2022-07-27T20:38:31.679Z,32.50
2022-07-27T20:40:58.421Z,32.20
2022-07-27T20:43:25.375Z,32.20
2022-07-27T20:45:53.464Z,32.20
2022-07-27T20:48:20.269Z,32.20
2022-07-27T20:50:46.983Z,32.40
2022-07-27T20:53:13.640Z,32.60
2022-07-27T20:55:40.320Z,32.60
2022-07-27T20:58:06.994Z,32.50
2022-07-27T21:00:33.650Z,32.30
2022-07-27T21:03:01.661Z,32.40
2022-07-27T21:05:28.476Z,32.50
2022-07-27T21:07:55.550Z,32.60
2022-07-27T21:10:22.750Z,32.60
2022-07-27T21:12:49.856Z,32.60
2022-07-27T21:15:17.119Z,32.60
2022-07-27T21:17:44.154Z,32.70
2022-07-27T21:20:12.802Z,32.90
2022-07-27T21:22:39.483Z,33.20
2022-07-27T21:25:06.612Z,33.10
2022-07-27T21:27:33.280Z,33.20
2022-07-27T21:30:00.031Z,33.50
2022-07-27T21:32:26.682Z,33.70
2022-07-27T21:34:53.366Z,33.90
2022-07-27T21:37:21.453Z,34.10
2022-07-27T21:39:48.140Z,34.30
2022-07-27T21:42:14.802Z,34.30
2022-07-27T21:44:41.552Z,33.90
2022-07-27T21:47:13.475Z,33.80
2022-07-27T21:49:40.892Z,33.90
2022-07-27T21:52:07.557Z,33.90
2022-07-27T21:54:35.523Z,33.90
2022-07-27T21:57:02.810Z,34.10
2022-07-27T21:59:29.481Z,34.50
2022-07-27T22:01:56.174Z,34.30
2022-07-27T22:04:22.903Z,34.20
2022-07-27T22:06:49.693Z,34.40
2022-07-27T22:09:16.416Z,34.70
2022-07-27T22:11:44.426Z,34.60
2022-07-27T22:14:11.589Z,34.60
2022-07-27T22:16:38.489Z,34.40
2022-07-27T22:19:05.315Z,34.60
2022-07-27T22:21:32.013Z,34.50
2022-07-27T22:23:58.691Z,34.70
2022-07-27T22:26:25.408Z,35.10
2022-07-27T22:28:53.613Z,35.30
2022-07-27T22:31:23.116Z,35.50
2022-07-27T22:33:50.443Z,35.40
2022-07-27T22:36:17.109Z,35.20
2022-07-27T22:38:43.833Z,34.90
2022-07-27T22:41:10.568Z,34.80
2022-07-27T22:43:37.270Z,35.00
2022-07-27T22:46:06.274Z,35.10
2022-07-27T22:48:33.095Z,35.10
2022-07-27T22:50:59.910Z,35.00
2022-07-27T22:53:26.609Z,35.10
2022-07-27T22:55:53.302Z,35.10
2022-07-27T22:58:20.056Z,35.30
2022-07-27T23:00:46.828Z,35.40
2022-07-27T23:03:14.842Z,35.70
2022-07-27T23:05:42.051Z,36.00
2022-07-27T23:08:08.758Z,35.80
2022-07-27T23:10:35.433Z,36.10
2022-07-27T23:13:02.147Z,35.90
2022-07-27T23:15:28.965Z,36.80
2022-07-27T23:17:55.607Z,35.90
2022-07-27T23:20:23.708Z,35.70
2022-07-27T23:22:50.449Z,35.80
2022-07-27T23:25:17.128Z,35.70
2022-07-27T23:27:43.826Z,35.60
2022-07-27T23:30:11.388Z,36.40
2022-07-27T23:32:38.081Z,36.20
2022-07-27T23:35:05.649Z,36.60
2022-07-27T23:37:33.788Z,37.00
2022-07-27T23:40:00.447Z,36.60
2022-07-27T23:42:27.147Z,36.70
2022-07-27T23:44:53.955Z,36.50
2022-07-27T23:47:21.072Z,37.20
2022-07-27T23:49:47.742Z,36.20
2022-07-27T23:52:14.503Z,36.90
2022-07-27T23:54:42.521Z,37.00
2022-07-27T23:57:09.197Z,36.60
2022-07-27T23:59:35.941Z,36.30
